createdAt,value
2018-12-10T00:04:46.905Z,18.90
2018-12-10T00:09:43.449Z,13.23
2018-12-10T00:14:37.961Z,13.23
2018-12-10T00:19:32.461Z,15.00
2018-12-10T00:24:26.957Z,13.20
2018-12-10T00:29:21.455Z,13.63
2018-12-10T00:34:16.016Z,11.43
2018-12-10T00:39:10.557Z,11.13
2018-12-10T00:44:05.105Z,13.30
2018-12-10T00:48:59.588Z,13.00
2018-12-10T00:53:54.042Z,13.50
2018-12-10T00:58:48.524Z,13.87
2018-12-10T01:03:43.089Z,12.57
2018-12-10T01:08:37.572Z,12.33
2018-12-10T01:13:32.052Z,12.63
2018-12-10T01:18:26.540Z,13.63
2018-12-10T01:23:21.035Z,14.33
2018-12-10T01:28:15.493Z,12.17
2018-12-10T01:33:09.981Z,12.13
2018-12-10T01:38:04.960Z,12.27
2018-12-10T01:42:59.436Z,12.53
2018-12-10T01:47:53.978Z,12.07
2018-12-10T01:52:48.462Z,11.37
2018-12-10T01:57:42.961Z,12.13
2018-12-10T02:02:37.459Z,12.10
2018-12-10T02:07:31.965Z,11.90
2018-12-10T02:12:26.477Z,11.60
2018-12-10T02:17:22.125Z,10.53
2018-12-10T02:22:16.626Z,11.00
2018-12-10T02:27:11.175Z,12.07
2018-12-10T02:32:05.685Z,13.57
2018-12-10T02:37:00.165Z,15.47
2018-12-10T02:41:54.652Z,14.53
2018-12-10T02:46:49.153Z,13.93
2018-12-10T02:51:43.611Z,13.17
2018-12-10T02:56:38.122Z,11.03
2018-12-10T03:01:32.630Z,10.80
2018-12-10T03:06:27.133Z,11.67
2018-12-10T03:11:21.646Z,10.27
2018-12-10T03:16:16.195Z,10.73
2018-12-10T03:21:10.745Z,10.13
2018-12-10T03:26:05.266Z,11.30
2018-12-10T03:30:59.827Z,11.47
2018-12-10T03:35:54.362Z,11.07
2018-12-10T03:40:48.856Z,10.70
2018-12-10T03:45:43.398Z,11.10
2018-12-10T03:50:37.929Z,9.93
2018-12-10T03:55:32.463Z,9.77
2018-12-10T04:00:27.002Z,10.23
2018-12-10T04:05:21.565Z,10.00
2018-12-10T04:10:16.070Z,9.80
2018-12-10T04:15:10.608Z,11.20
2018-12-10T04:20:05.326Z,10.63
2018-12-10T04:24:59.851Z,9.57
2018-12-10T04:29:54.418Z,9.40
2018-12-10T04:34:48.941Z,9.90
2018-12-10T04:39:43.465Z,10.00
2018-12-10T04:44:37.976Z,8.57
2018-12-10T04:49:32.495Z,9.10
2018-12-10T04:54:27.022Z,8.67
2018-12-10T04:59:22.777Z,8.33
2018-12-10T05:04:17.289Z,8.97
2018-12-10T05:09:11.866Z,8.40
2018-12-10T05:14:06.393Z,8.97
2018-12-10T05:19:00.898Z,9.27
2018-12-10T05:23:55.473Z,10.37
2018-12-10T05:28:49.994Z,7.90
2018-12-10T05:33:44.508Z,7.20
2018-12-10T05:38:39.013Z,10.03
2018-12-10T05:43:33.525Z,8.97
2018-12-10T05:48:28.025Z,9.00
2018-12-10T05:53:22.542Z,9.00
2018-12-10T05:58:17.784Z,9.57
2018-12-10T06:03:12.502Z,8.03
2018-12-10T06:08:07.001Z,7.83
2018-12-10T06:13:01.515Z,7.77
2018-12-10T06:17:56.175Z,7.90
2018-12-10T06:22:50.691Z,8.07
2018-12-10T06:27:45.349Z,10.50
2018-12-10T06:32:39.889Z,10.03
2018-12-10T06:37:37.649Z,9.33
2018-12-10T06:42:31.029Z,11.13
2018-12-10T06:47:25.574Z,17.93
2018-12-10T06:52:20.105Z,17.93
2018-12-10T06:57:14.655Z,11.37
2018-12-10T07:02:09.221Z,11.40
2018-12-10T07:07:04.305Z,16.03
2018-12-10T07:11:58.945Z,12.87
2018-12-10T07:16:54.513Z,13.40
2018-12-10T07:21:49.254Z,12.47
2018-12-10T07:26:43.774Z,10.67
2018-12-10T07:31:38.302Z,9.90
2018-12-10T07:36:32.844Z,12.33
2018-12-10T07:41:27.334Z,11.90
2018-12-10T07:46:21.925Z,11.83
2018-12-10T07:51:16.497Z,10.07
2018-12-10T07:56:11.109Z,10.70
2018-12-10T08:01:05.632Z,11.30
2018-12-10T08:06:00.244Z,11.50
2018-12-10T08:10:54.835Z,11.80
2018-12-10T08:15:49.441Z,9.80
2018-12-10T08:20:44.049Z,10.73
2018-12-10T08:25:38.627Z,14.10
2018-12-10T08:30:33.259Z,13.87
2018-12-10T08:35:27.919Z,11.20
2018-12-10T08:40:22.533Z,9.73
2018-12-10T08:45:18.782Z,7.50
2018-12-10T08:50:13.533Z,6.63
2018-12-10T08:55:08.152Z,9.70
2018-12-10T09:00:03.858Z,18.03
2018-12-10T09:04:59.654Z,13.20
2018-12-10T09:09:54.212Z,8.23
2018-12-10T09:14:48.798Z,5.10
2018-12-10T09:19:43.442Z,4.93
2018-12-10T09:24:38.103Z,3.00
2018-12-10T09:29:32.760Z,1.47
2018-12-10T09:34:27.417Z,1.10
2018-12-10T09:39:22.025Z,1.00
2018-12-10T09:44:16.569Z,1.07
2018-12-10T09:49:11.138Z,0.90
2018-12-10T09:54:05.653Z,40.30
2018-12-10T09:59:00.209Z,98.87
2018-12-10T10:03:54.709Z,44.37
2018-12-10T10:08:49.872Z,44.80
2018-12-10T10:13:44.687Z,16.10
2018-12-10T10:18:39.202Z,2.70
2018-12-10T10:23:34.628Z,1.87
2018-12-10T10:28:29.143Z,4.23
2018-12-10T10:33:32.047Z,4.10
2018-12-10T10:38:20.206Z,3.83
2018-12-10T10:43:14.720Z,5.30
2018-12-10T10:48:09.245Z,2.27
2018-12-10T10:53:03.771Z,2.83
2018-12-10T10:57:58.261Z,1.60
2018-12-10T11:02:53.556Z,2.53
2018-12-10T11:07:48.026Z,2.17
2018-12-10T11:12:42.529Z,1.83
2018-12-10T11:17:37.080Z,1.27
2018-12-10T11:22:31.540Z,0.87
2018-12-10T11:27:26.069Z,1.00
2018-12-10T11:32:20.555Z,0.90
2018-12-10T11:37:14.994Z,1.00
2018-12-10T11:42:09.432Z,0.90
2018-12-10T11:47:03.969Z,1.03
2018-12-10T11:51:58.406Z,0.93
2018-12-10T11:56:53.006Z,1.00
2018-12-10T12:01:47.541Z,3.40
2018-12-10T12:06:42.069Z,2.50
2018-12-10T12:11:36.565Z,2.00
2018-12-10T12:16:31.158Z,1.90
2018-12-10T12:21:25.699Z,1.40
2018-12-10T12:26:20.322Z,1.00
2018-12-10T12:31:14.906Z,2.20
2018-12-10T12:36:09.424Z,1.57
2018-12-10T12:41:03.953Z,2.63
2018-12-10T12:45:58.544Z,10.03
2018-12-10T12:50:53.079Z,11.17
2018-12-10T12:55:47.582Z,1.10
2018-12-10T13:00:42.287Z,1.10
2018-12-10T13:05:36.939Z,1.70
2018-12-10T13:10:31.518Z,1.30
2018-12-10T13:15:26.014Z,1.10
2018-12-10T13:20:20.493Z,1.50
2018-12-10T13:25:14.990Z,1.07
2018-12-10T13:30:09.658Z,1.10
2018-12-10T13:35:04.307Z,1.00
2018-12-10T13:39:58.789Z,1.00
2018-12-10T13:44:53.438Z,1.20
2018-12-10T13:49:48.042Z,2.83
2018-12-10T13:54:43.079Z,1.47
2018-12-10T13:59:37.658Z,1.17
2018-12-10T14:04:37.225Z,1.10
2018-12-10T14:09:31.789Z,1.10
2018-12-10T14:14:26.428Z,1.23
2018-12-10T14:19:21.149Z,1.07
2018-12-10T14:24:15.997Z,1.03
2018-12-10T14:29:10.560Z,1.20
2018-12-10T14:34:10.287Z,1.57
2018-12-10T14:39:08.901Z,1.50
2018-12-10T14:44:03.465Z,1.00
2018-12-10T14:48:58.560Z,6.30
2018-12-10T14:53:53.191Z,0.97
2018-12-10T14:58:47.698Z,1.20
2018-12-10T15:03:42.224Z,1.27
2018-12-10T15:08:36.779Z,3.00
2018-12-10T15:13:31.587Z,2.40
2018-12-10T15:18:26.234Z,1.60
2018-12-10T15:23:20.702Z,4.03
2018-12-10T15:28:15.276Z,4.67
2018-12-10T15:33:09.768Z,6.30
2018-12-10T15:38:04.342Z,2.40
2018-12-10T15:42:58.908Z,1.60
2018-12-10T15:47:53.397Z,2.30
2018-12-10T15:52:47.957Z,3.10
2018-12-10T15:57:43.583Z,2.40
2018-12-10T16:02:38.132Z,2.90
2018-12-10T16:07:32.681Z,3.03
2018-12-10T16:12:27.175Z,4.53
2018-12-10T16:17:21.681Z,4.23
2018-12-10T16:22:16.291Z,3.87
2018-12-10T16:27:11.128Z,9.47
2018-12-10T16:32:05.677Z,7.50
2018-12-10T16:37:00.225Z,7.97
2018-12-10T16:42:00.028Z,5.80
2018-12-10T16:47:00.821Z,5.63
2018-12-10T16:52:00.416Z,6.07
2018-12-10T16:56:59.831Z,8.07
2018-12-10T17:01:54.635Z,9.60
2018-12-10T17:06:49.322Z,8.83
2018-12-10T17:11:44.296Z,8.30
2018-12-10T17:16:39.218Z,10.37
2018-12-10T17:21:33.854Z,11.50
2018-12-10T17:26:28.582Z,89.63
2018-12-10T17:31:23.934Z,34.60
2018-12-10T17:36:18.681Z,31.10
2018-12-10T17:41:13.217Z,23.10
2018-12-10T17:46:07.732Z,24.03
2018-12-10T17:51:02.334Z,20.83
2018-12-10T17:55:57.009Z,23.70
2018-12-10T18:00:51.516Z,36.97
2018-12-10T18:05:46.066Z,24.80
2018-12-10T18:10:40.789Z,30.63
2018-12-10T18:15:35.338Z,29.43
2018-12-10T18:20:29.841Z,26.30
2018-12-10T18:25:24.366Z,26.33
2018-12-10T18:30:18.884Z,53.43
2018-12-10T18:35:13.815Z,19.17
2018-12-10T18:40:12.824Z,38.50
2018-12-10T18:45:10.751Z,30.80
2018-12-10T18:50:05.344Z,26.47
2018-12-10T18:54:59.983Z,22.80
2018-12-10T18:59:54.609Z,22.03
2018-12-10T19:04:49.137Z,20.77
2018-12-10T19:09:43.673Z,20.20
2018-12-10T19:14:38.170Z,20.50
2018-12-10T19:19:32.690Z,20.33
2018-12-10T19:24:27.349Z,20.37
2018-12-10T19:29:21.954Z,20.27
2018-12-10T19:34:16.447Z,18.97
2018-12-10T19:39:11.786Z,22.13
2018-12-10T19:44:09.478Z,22.53
2018-12-10T19:49:05.098Z,21.43
2018-12-10T19:54:00.760Z,23.27
2018-12-10T19:58:55.620Z,24.17
2018-12-10T20:03:50.192Z,13.20
2018-12-10T20:08:45.419Z,12.87
2018-12-10T20:13:40.001Z,13.87
2018-12-10T20:18:34.530Z,17.43
2018-12-10T20:23:29.303Z,15.87
2018-12-10T20:28:23.861Z,18.07
2018-12-10T20:33:18.435Z,9.77
2018-12-10T20:38:13.031Z,13.53
2018-12-10T20:43:07.629Z,16.20
2018-12-10T20:48:02.170Z,16.53
2018-12-10T20:52:56.678Z,16.97
2018-12-10T20:57:51.291Z,17.60
2018-12-10T21:02:45.886Z,17.83
2018-12-10T21:07:40.394Z,18.43
2018-12-10T21:12:35.013Z,16.97
2018-12-10T21:17:29.530Z,18.43
2018-12-10T21:22:24.107Z,17.07
2018-12-10T21:27:18.607Z,16.80
2018-12-10T21:32:13.105Z,15.70
2018-12-10T21:37:07.618Z,16.00
2018-12-10T21:42:02.120Z,18.40
2018-12-10T21:46:57.661Z,16.87
2018-12-10T21:51:52.409Z,16.90
2018-12-10T21:56:46.885Z,15.63
2018-12-10T22:01:41.397Z,16.00
2018-12-10T22:06:35.980Z,18.73
2018-12-10T22:11:30.501Z,18.53
2018-12-10T22:16:25.081Z,19.60
2018-12-10T22:21:19.575Z,16.70
2018-12-10T22:26:14.084Z,19.63
2018-12-10T22:31:08.568Z,16.33
2018-12-10T22:36:03.085Z,16.40
2018-12-10T22:40:57.589Z,20.27
2018-12-10T22:45:52.088Z,16.13
2018-12-10T22:50:46.664Z,14.23
2018-12-10T22:55:42.351Z,11.90
2018-12-10T23:00:44.667Z,13.10
2018-12-10T23:05:42.215Z,12.33
2018-12-10T23:10:38.763Z,14.00
2018-12-10T23:15:33.252Z,13.03
2018-12-10T23:20:27.766Z,17.73
2018-12-10T23:25:22.321Z,17.53
2018-12-10T23:30:16.836Z,14.83
2018-12-10T23:35:11.373Z,15.73
2018-12-10T23:40:06.196Z,15.60
2018-12-10T23:45:00.720Z,14.00
2018-12-10T23:49:55.222Z,14.70
2018-12-10T23:54:49.714Z,14.37
2018-12-10T23:59:44.218Z,14.30
